sensor_id;sensor_type;location;lat;lon;timestamp;pressure;altitude;pressure_sealevel;temperature
69704;BMP280;56967;43.538;-5.646;2023-03-04T00:00:56;101997.00;;;11.41
69704;BMP280;56967;43.538;-5.646;2023-03-04T00:03:22;101986.47;;;11.26
69704;BMP280;56967;43.538;-5.646;2023-03-04T00:05:47;101976.31;;;11.38
69704;BMP280;56967;43.538;-5.646;2023-03-04T00:08:13;101989.69;;;11.57
69704;BMP280;56967;43.538;-5.646;2023-03-04T00:10:39;101985.84;;;11.75
69704;BMP280;56967;43.538;-5.646;2023-03-04T00:13:04;101994.56;;;11.75
69704;BMP280;56967;43.538;-5.646;2023-03-04T00:15:30;101998.09;;;11.46
69704;BMP280;56967;43.538;-5.646;2023-03-04T00:17:55;101992.53;;;11.41
69704;BMP280;56967;43.538;-5.646;2023-03-04T00:20:21;101988.25;;;11.55
69704;BMP280;56967;43.538;-5.646;2023-03-04T00:22:46;101987.13;;;11.64
69704;BMP280;56967;43.538;-5.646;2023-03-04T00:25:12;101990.44;;;11.73
69704;BMP280;56967;43.538;-5.646;2023-03-04T00:27:37;101989.56;;;11.87
69704;BMP280;56967;43.538;-5.646;2023-03-04T00:30:05;101991.09;;;11.96
69704;BMP280;56967;43.538;-5.646;2023-03-04T00:32:30;101993.66;;;12.10
69704;BMP280;56967;43.538;-5.646;2023-03-04T00:34:56;101997.06;;;12.04
69704;BMP280;56967;43.538;-5.646;2023-03-04T00:37:21;101999.56;;;11.70
69704;BMP280;56967;43.538;-5.646;2023-03-04T00:39:47;101986.06;;;11.80
69704;BMP280;56967;43.538;-5.646;2023-03-04T00:42:12;101980.97;;;11.78
69704;BMP280;56967;43.538;-5.646;2023-03-04T00:44:38;101978.78;;;11.82
69704;BMP280;56967;43.538;-5.646;2023-03-04T00:47:03;101981.94;;;11.92
69704;BMP280;56967;43.538;-5.646;2023-03-04T00:49:29;101978.50;;;11.91
69704;BMP280;56967;43.538;-5.646;2023-03-04T00:51:55;101977.56;;;11.99
69704;BMP280;56967;43.538;-5.646;2023-03-04T00:54:20;101982.38;;;12.16
69704;BMP280;56967;43.538;-5.646;2023-03-04T00:56:46;101987.63;;;12.16
69704;BMP280;56967;43.538;-5.646;2023-03-04T00:59:11;101986.06;;;11.80
69704;BMP280;56967;43.538;-5.646;2023-03-04T01:01:37;101986.94;;;11.65
69704;BMP280;56967;43.538;-5.646;2023-03-04T01:04:02;101982.59;;;11.58
69704;BMP280;56967;43.538;-5.646;2023-03-04T01:06:28;101977.16;;;11.59
69704;BMP280;56967;43.538;-5.646;2023-03-04T01:08:53;101973.69;;;11.59
69704;BMP280;56967;43.538;-5.646;2023-03-04T01:11:19;101970.44;;;11.57
69704;BMP280;56967;43.538;-5.646;2023-03-04T01:13:45;101964.50;;;11.70
69704;BMP280;56967;43.538;-5.646;2023-03-04T01:16:10;101970.56;;;11.85
69704;BMP280;56967;43.538;-5.646;2023-03-04T01:18:37;101962.94;;;11.96
69704;BMP280;56967;43.538;-5.646;2023-03-04T01:21:03;101961.97;;;12.04
69704;BMP280;56967;43.538;-5.646;2023-03-04T01:23:29;101956.94;;;12.09
69704;BMP280;56967;43.538;-5.646;2023-03-04T01:25:54;101958.06;;;12.21
69704;BMP280;56967;43.538;-5.646;2023-03-04T01:28:20;101955.88;;;12.31
69704;BMP280;56967;43.538;-5.646;2023-03-04T01:30:45;101949.25;;;12.35
69704;BMP280;56967;43.538;-5.646;2023-03-04T01:33:11;101956.59;;;12.40
69704;BMP280;56967;43.538;-5.646;2023-03-04T01:35:36;101956.59;;;12.40
69704;BMP280;56967;43.538;-5.646;2023-03-04T01:38:02;101960.53;;;12.29
69704;BMP280;56967;43.538;-5.646;2023-03-04T01:40:27;101962.56;;;12.27
69704;BMP280;56967;43.538;-5.646;2023-03-04T01:42:53;101963.00;;;12.31
69704;BMP280;56967;43.538;-5.646;2023-03-04T01:45:19;101964.91;;;12.15
69704;BMP280;56967;43.538;-5.646;2023-03-04T01:47:46;101958.88;;;12.00
69704;BMP280;56967;43.538;-5.646;2023-03-04T01:50:31;101954.16;;;11.68
69704;BMP280;56967;43.538;-5.646;2023-03-04T01:52:57;101949.66;;;11.62
69704;BMP280;56967;43.538;-5.646;2023-03-04T01:55:23;101942.53;;;11.62
69704;BMP280;56967;43.538;-5.646;2023-03-04T01:57:51;101945.09;;;11.56
69704;BMP280;56967;43.538;-5.646;2023-03-04T02:02:52;101930.66;;;11.31
69704;BMP280;56967;43.538;-5.646;2023-03-04T02:05:18;101925.03;;;11.34
69704;BMP280;56967;43.538;-5.646;2023-03-04T02:07:44;101923.41;;;11.33
69704;BMP280;56967;43.538;-5.646;2023-03-04T02:10:11;101910.66;;;11.36
69704;BMP280;56967;43.538;-5.646;2023-03-04T02:12:37;101901.78;;;11.37
69704;BMP280;56967;43.538;-5.646;2023-03-04T02:15:03;101890.22;;;11.53
69704;BMP280;56967;43.538;-5.646;2023-03-04T02:17:30;101894.75;;;11.44
69704;BMP280;56967;43.538;-5.646;2023-03-04T02:20:22;101881.53;;;11.59
69704;BMP280;56967;43.538;-5.646;2023-03-04T02:23:00;101885.91;;;11.73
69704;BMP280;56967;43.538;-5.646;2023-03-04T02:25:42;101880.88;;;11.78
69704;BMP280;56967;43.538;-5.646;2023-03-04T02:28:09;101872.50;;;11.89
69704;BMP280;56967;43.538;-5.646;2023-03-04T02:30:35;101872.16;;;11.99
69704;BMP280;56967;43.538;-5.646;2023-03-04T02:33:00;101874.00;;;12.05
69704;BMP280;56967;43.538;-5.646;2023-03-04T02:35:26;101879.97;;;11.92
69704;BMP280;56967;43.538;-5.646;2023-03-04T02:37:52;101879.13;;;11.85
69704;BMP280;56967;43.538;-5.646;2023-03-04T02:40:25;101864.81;;;11.94
69704;BMP280;56967;43.538;-5.646;2023-03-04T02:42:52;101871.44;;;12.18
69704;BMP280;56967;43.538;-5.646;2023-03-04T02:47:55;101883.34;;;12.42
69704;BMP280;56967;43.538;-5.646;2023-03-04T02:50:21;101875.72;;;12.53
69704;BMP280;56967;43.538;-5.646;2023-03-04T02:52:46;101886.28;;;12.53
69704;BMP280;56967;43.538;-5.646;2023-03-04T02:55:12;101888.13;;;12.59
69704;BMP280;56967;43.538;-5.646;2023-03-04T02:57:37;101891.19;;;12.63
69704;BMP280;56967;43.538;-5.646;2023-03-04T03:00:03;101889.78;;;12.67
69704;BMP280;56967;43.538;-5.646;2023-03-04T03:02:29;101892.44;;;12.73
69704;BMP280;56967;43.538;-5.646;2023-03-04T03:04:54;101899.75;;;12.78
69704;BMP280;56967;43.538;-5.646;2023-03-04T03:07:20;101897.75;;;12.80
69704;BMP280;56967;43.538;-5.646;2023-03-04T03:09:45;101907.50;;;12.79
69704;BMP280;56967;43.538;-5.646;2023-03-04T03:12:11;101900.53;;;12.65
69704;BMP280;56967;43.538;-5.646;2023-03-04T03:14:36;101907.06;;;12.82
69704;BMP280;56967;43.538;-5.646;2023-03-04T03:17:02;101902.53;;;12.63
69704;BMP280;56967;43.538;-5.646;2023-03-04T03:19:27;101898.66;;;12.53
69704;BMP280;56967;43.538;-5.646;2023-03-04T03:21:53;101895.16;;;12.46
69704;BMP280;56967;43.538;-5.646;2023-03-04T03:24:18;101884.63;;;12.18
69704;BMP280;56967;43.538;-5.646;2023-03-04T03:26:44;101871.69;;;11.95
69704;BMP280;56967;43.538;-5.646;2023-03-04T03:29:10;101861.38;;;12.00
69704;BMP280;56967;43.538;-5.646;2023-03-04T03:31:35;101848.00;;;11.95
69704;BMP280;56967;43.538;-5.646;2023-03-04T03:34:01;101848.28;;;12.07
69704;BMP280;56967;43.538;-5.646;2023-03-04T03:36:26;101848.31;;;11.86
69704;BMP280;56967;43.538;-5.646;2023-03-04T03:38:52;101840.09;;;11.95
69704;BMP280;56967;43.538;-5.646;2023-03-04T03:41:17;101842.47;;;11.84
69704;BMP280;56967;43.538;-5.646;2023-03-04T03:43:43;101837.31;;;12.03
69704;BMP280;56967;43.538;-5.646;2023-03-04T03:46:08;101838.00;;;12.12
69704;BMP280;56967;43.538;-5.646;2023-03-04T03:48:34;101830.50;;;12.22
69704;BMP280;56967;43.538;-5.646;2023-03-04T03:51:00;101850.38;;;11.90
69704;BMP280;56967;43.538;-5.646;2023-03-04T03:53:26;101843.38;;;12.04
69704;BMP280;56967;43.538;-5.646;2023-03-04T03:55:51;101845.09;;;12.18
69704;BMP280;56967;43.538;-5.646;2023-03-04T03:58:17;101848.94;;;12.15
69704;BMP280;56967;43.538;-5.646;2023-03-04T04:00:42;101856.69;;;12.23
69704;BMP280;56967;43.538;-5.646;2023-03-04T04:03:11;101867.47;;;12.29
69704;BMP280;56967;43.538;-5.646;2023-03-04T04:05:38;101878.66;;;12.37
69704;BMP280;56967;43.538;-5.646;2023-03-04T04:08:04;101873.66;;;12.49
69704;BMP280;56967;43.538;-5.646;2023-03-04T04:10:29;101878.78;;;12.57
69704;BMP280;56967;43.538;-5.646;2023-03-04T04:12:55;101882.88;;;12.25
69704;BMP280;56967;43.538;-5.646;2023-03-04T04:15:20;101883.34;;;12.07
69704;BMP280;56967;43.538;-5.646;2023-03-04T04:17:46;101887.88;;;11.92
69704;BMP280;56967;43.538;-5.646;2023-03-04T04:20:11;101884.75;;;11.76
69704;BMP280;56967;43.538;-5.646;2023-03-04T04:22:37;101878.59;;;11.96
69704;BMP280;56967;43.538;-5.646;2023-03-04T04:25:02;101875.75;;;11.49
69704;BMP280;56967;43.538;-5.646;2023-03-04T04:27:29;101863.03;;;11.74
69704;BMP280;56967;43.538;-5.646;2023-03-04T04:29:54;101860.03;;;11.55
69704;BMP280;56967;43.538;-5.646;2023-03-04T04:32:20;101852.25;;;11.69
69704;BMP280;56967;43.538;-5.646;2023-03-04T04:34:45;101852.84;;;11.92
69704;BMP280;56967;43.538;-5.646;2023-03-04T04:37:11;101859.31;;;11.89
69704;BMP280;56967;43.538;-5.646;2023-03-04T04:39:36;101864.91;;;12.07
69704;BMP280;56967;43.538;-5.646;2023-03-04T04:42:02;101862.03;;;12.02
69704;BMP280;56967;43.538;-5.646;2023-03-04T04:44:28;101863.47;;;11.77
69704;BMP280;56967;43.538;-5.646;2023-03-04T04:46:53;101856.03;;;11.87
69704;BMP280;56967;43.538;-5.646;2023-03-04T04:49:19;101860.81;;;11.98
69704;BMP280;56967;43.538;-5.646;2023-03-04T04:51:44;101873.47;;;12.16
69704;BMP280;56967;43.538;-5.646;2023-03-04T04:54:13;101870.91;;;12.29
69704;BMP280;56967;43.538;-5.646;2023-03-04T04:56:38;101886.34;;;12.32
69704;BMP280;56967;43.538;-5.646;2023-03-04T04:59:05;101902.81;;;12.34
69704;BMP280;56967;43.538;-5.646;2023-03-04T05:01:33;101891.84;;;12.37
69704;BMP280;56967;43.538;-5.646;2023-03-04T05:03:59;101894.16;;;12.47
69704;BMP280;56967;43.538;-5.646;2023-03-04T05:06:24;101901.41;;;12.45
69704;BMP280;56967;43.538;-5.646;2023-03-04T05:08:50;101905.31;;;12.55
69704;BMP280;56967;43.538;-5.646;2023-03-04T05:11:17;101910.25;;;12.58
69704;BMP280;56967;43.538;-5.646;2023-03-04T05:13:44;101898.50;;;12.61
69704;BMP280;56967;43.538;-5.646;2023-03-04T05:16:09;101904.75;;;12.53
69704;BMP280;56967;43.538;-5.646;2023-03-04T05:18:35;101912.50;;;12.61
69704;BMP280;56967;43.538;-5.646;2023-03-04T05:21:02;101907.44;;;12.66
69704;BMP280;56967;43.538;-5.646;2023-03-04T05:23:31;101912.72;;;12.73
69704;BMP280;56967;43.538;-5.646;2023-03-04T05:25:57;101925.53;;;12.76
69704;BMP280;56967;43.538;-5.646;2023-03-04T05:28:22;101925.31;;;12.77
69704;BMP280;56967;43.538;-5.646;2023-03-04T05:30:48;101923.94;;;12.81
69704;BMP280;56967;43.538;-5.646;2023-03-04T05:33:15;101935.53;;;12.80
69704;BMP280;56967;43.538;-5.646;2023-03-04T05:35:41;101942.41;;;12.81
69704;BMP280;56967;43.538;-5.646;2023-03-04T05:38:09;101940.25;;;12.57
69704;BMP280;56967;43.538;-5.646;2023-03-04T05:40:36;101937.88;;;12.35
69704;BMP280;56967;43.538;-5.646;2023-03-04T05:43:03;101936.25;;;12.34
69704;BMP280;56967;43.538;-5.646;2023-03-04T05:45:29;101939.06;;;12.26
69704;BMP280;56967;43.538;-5.646;2023-03-04T05:47:54;101932.06;;;12.18
69704;BMP280;56967;43.538;-5.646;2023-03-04T05:50:21;101929.53;;;12.31
69704;BMP280;56967;43.538;-5.646;2023-03-04T05:52:47;101926.28;;;12.36
69704;BMP280;56967;43.538;-5.646;2023-03-04T05:55:14;101934.09;;;12.44
69704;BMP280;56967;43.538;-5.646;2023-03-04T05:57:40;101933.94;;;12.52
69704;BMP280;56967;43.538;-5.646;2023-03-04T06:00:07;101938.63;;;12.56
69704;BMP280;56967;43.538;-5.646;2023-03-04T06:02:37;101947.97;;;12.59
69704;BMP280;56967;43.538;-5.646;2023-03-04T06:05:03;101939.44;;;12.63
69704;BMP280;56967;43.538;-5.646;2023-03-04T06:07:29;101950.09;;;12.42
69704;BMP280;56967;43.538;-5.646;2023-03-04T06:09:55;101954.47;;;12.29
69704;BMP280;56967;43.538;-5.646;2023-03-04T06:12:20;101958.25;;;12.19
69704;BMP280;56967;43.538;-5.646;2023-03-04T06:14:46;101960.03;;;12.12
69704;BMP280;56967;43.538;-5.646;2023-03-04T06:17:12;101969.75;;;12.12
69704;BMP280;56967;43.538;-5.646;2023-03-04T06:19:37;101972.56;;;12.10
69704;BMP280;56967;43.538;-5.646;2023-03-04T06:22:04;101974.34;;;12.31
69704;BMP280;56967;43.538;-5.646;2023-03-04T06:24:29;101962.13;;;12.23
69704;BMP280;56967;43.538;-5.646;2023-03-04T06:26:55;101971.72;;;12.31
69704;BMP280;56967;43.538;-5.646;2023-03-04T06:29:21;101974.81;;;12.41
69704;BMP280;56967;43.538;-5.646;2023-03-04T06:31:46;101977.69;;;12.40
69704;BMP280;56967;43.538;-5.646;2023-03-04T06:34:12;101977.63;;;12.33
69704;BMP280;56967;43.538;-5.646;2023-03-04T06:36:37;101976.78;;;12.26
69704;BMP280;56967;43.538;-5.646;2023-03-04T06:39:04;101980.72;;;12.15
69704;BMP280;56967;43.538;-5.646;2023-03-04T06:41:30;101977.78;;;12.25
69704;BMP280;56967;43.538;-5.646;2023-03-04T06:43:55;101975.59;;;12.35
69704;BMP280;56967;43.538;-5.646;2023-03-04T06:46:21;101981.72;;;12.42
69704;BMP280;56967;43.538;-5.646;2023-03-04T06:48:47;101980.69;;;12.37
69704;BMP280;56967;43.538;-5.646;2023-03-04T06:51:13;101986.94;;;12.36
69704;BMP280;56967;43.538;-5.646;2023-03-04T06:53:39;101989.41;;;12.37
69704;BMP280;56967;43.538;-5.646;2023-03-04T06:56:06;101991.06;;;12.45
69704;BMP280;56967;43.538;-5.646;2023-03-04T06:58:32;101995.25;;;12.33
69704;BMP280;56967;43.538;-5.646;2023-03-04T07:03:36;101990.22;;;12.38
69704;BMP280;56967;43.538;-5.646;2023-03-04T07:06:02;101993.50;;;12.40
69704;BMP280;56967;43.538;-5.646;2023-03-04T07:08:27;101999.44;;;12.48
69704;BMP280;56967;43.538;-5.646;2023-03-04T07:10:53;102006.47;;;12.41
69704;BMP280;56967;43.538;-5.646;2023-03-04T07:13:18;101993.28;;;12.41
69704;BMP280;56967;43.538;-5.646;2023-03-04T07:15:44;102008.78;;;12.51
69704;BMP280;56967;43.538;-5.646;2023-03-04T07:18:09;102012.72;;;12.61
69704;BMP280;56967;43.538;-5.646;2023-03-04T07:20:35;102012.53;;;12.69
69704;BMP280;56967;43.538;-5.646;2023-03-04T07:23:01;102023.50;;;12.39
69704;BMP280;56967;43.538;-5.646;2023-03-04T07:25:26;102021.91;;;12.16
69704;BMP280;56967;43.538;-5.646;2023-03-04T07:27:52;102006.56;;;12.27
69704;BMP280;56967;43.538;-5.646;2023-03-04T07:30:18;102011.69;;;12.35
69704;BMP280;56967;43.538;-5.646;2023-03-04T07:32:43;102025.78;;;12.48
69704;BMP280;56967;43.538;-5.646;2023-03-04T07:35:09;102029.69;;;12.52
69704;BMP280;56967;43.538;-5.646;2023-03-04T07:37:34;102031.69;;;12.50
69704;BMP280;56967;43.538;-5.646;2023-03-04T07:40:00;102036.13;;;12.50
69704;BMP280;56967;43.538;-5.646;2023-03-04T07:42:26;102038.66;;;12.58
69704;BMP280;56967;43.538;-5.646;2023-03-04T07:44:51;102042.69;;;12.54
69704;BMP280;56967;43.538;-5.646;2023-03-04T07:47:19;102047.44;;;12.65
69704;BMP280;56967;43.538;-5.646;2023-03-04T07:49:45;102048.97;;;12.80
69704;BMP280;56967;43.538;-5.646;2023-03-04T07:52:10;102050.94;;;12.44
69704;BMP280;56967;43.538;-5.646;2023-03-04T07:54:38;102046.41;;;12.94
69704;BMP280;56967;43.538;-5.646;2023-03-04T07:57:04;102057.19;;;12.99
69704;BMP280;56967;43.538;-5.646;2023-03-04T07:59:29;102063.47;;;12.98
69704;BMP280;56967;43.538;-5.646;2023-03-04T08:01:56;102068.00;;;13.10
69704;BMP280;56967;43.538;-5.646;2023-03-04T08:04:21;102068.38;;;13.01
69704;BMP280;56967;43.538;-5.646;2023-03-04T08:06:47;102070.75;;;12.96
69704;BMP280;56967;43.538;-5.646;2023-03-04T08:09:13;102064.97;;;13.13
69704;BMP280;56967;43.538;-5.646;2023-03-04T08:11:39;102070.56;;;13.31
69704;BMP280;56967;43.538;-5.646;2023-03-04T08:14:05;102079.97;;;13.06
69704;BMP280;56967;43.538;-5.646;2023-03-04T08:16:32;102081.75;;;13.33
69704;BMP280;56967;43.538;-5.646;2023-03-04T08:18:59;102074.88;;;13.39
69704;BMP280;56967;43.538;-5.646;2023-03-04T08:21:26;102091.16;;;13.49
69704;BMP280;56967;43.538;-5.646;2023-03-04T08:23:53;102091.16;;;13.56
69704;BMP280;56967;43.538;-5.646;2023-03-04T08:26:28;102099.72;;;13.58
69704;BMP280;56967;43.538;-5.646;2023-03-04T08:28:55;102100.97;;;13.62
69704;BMP280;56967;43.538;-5.646;2023-03-04T08:31:21;102103.00;;;13.73
69704;BMP280;56967;43.538;-5.646;2023-03-04T08:33:47;102103.22;;;13.65
69704;BMP280;56967;43.538;-5.646;2023-03-04T08:36:14;102104.06;;;13.91
69704;BMP280;56967;43.538;-5.646;2023-03-04T08:38:40;102108.78;;;13.96
69704;BMP280;56967;43.538;-5.646;2023-03-04T08:41:06;102108.41;;;14.19
69704;BMP280;56967;43.538;-5.646;2023-03-04T08:43:32;102115.16;;;14.54
69704;BMP280;56967;43.538;-5.646;2023-03-04T08:45:58;102109.59;;;14.68
69704;BMP280;56967;43.538;-5.646;2023-03-04T08:48:23;102117.16;;;14.13
69704;BMP280;56967;43.538;-5.646;2023-03-04T08:50:49;102124.53;;;14.50
69704;BMP280;56967;43.538;-5.646;2023-03-04T08:53:16;102117.19;;;14.58
69704;BMP280;56967;43.538;-5.646;2023-03-04T08:55:43;102125.47;;;14.88
69704;BMP280;56967;43.538;-5.646;2023-03-04T08:58:09;102122.00;;;15.07
69704;BMP280;56967;43.538;-5.646;2023-03-04T09:00:36;102129.88;;;15.27
69704;BMP280;56967;43.538;-5.646;2023-03-04T09:03:02;102134.13;;;15.41
69704;BMP280;56967;43.538;-5.646;2023-03-04T09:05:29;102138.28;;;15.68
69704;BMP280;56967;43.538;-5.646;2023-03-04T09:07:55;102132.41;;;15.91
69704;BMP280;56967;43.538;-5.646;2023-03-04T09:10:21;102142.41;;;15.89
69704;BMP280;56967;43.538;-5.646;2023-03-04T09:12:46;102141.84;;;15.80
69704;BMP280;56967;43.538;-5.646;2023-03-04T09:15:12;102142.84;;;15.86
69704;BMP280;56967;43.538;-5.646;2023-03-04T09:17:39;102150.91;;;15.66
69704;BMP280;56967;43.538;-5.646;2023-03-04T09:20:07;102143.22;;;15.52
69704;BMP280;56967;43.538;-5.646;2023-03-04T09:22:35;102146.56;;;15.78
69704;BMP280;56967;43.538;-5.646;2023-03-04T09:25:01;102143.69;;;15.80
69704;BMP280;56967;43.538;-5.646;2023-03-04T09:27:26;102148.84;;;16.06
69704;BMP280;56967;43.538;-5.646;2023-03-04T09:29:52;102155.31;;;16.17
69704;BMP280;56967;43.538;-5.646;2023-03-04T09:32:18;102154.00;;;16.26
69704;BMP280;56967;43.538;-5.646;2023-03-04T09:34:43;102158.72;;;16.48
69704;BMP280;56967;43.538;-5.646;2023-03-04T09:37:09;102158.59;;;16.61
69704;BMP280;56967;43.538;-5.646;2023-03-04T09:39:34;102160.41;;;16.86
69704;BMP280;56967;43.538;-5.646;2023-03-04T09:42:00;102158.22;;;17.19
69704;BMP280;56967;43.538;-5.646;2023-03-04T09:44:38;102171.06;;;17.22
69704;BMP280;56967;43.538;-5.646;2023-03-04T09:47:10;102170.88;;;17.53
69704;BMP280;56967;43.538;-5.646;2023-03-04T09:49:39;102173.50;;;17.71
69704;BMP280;56967;43.538;-5.646;2023-03-04T09:52:17;102176.00;;;17.96
69704;BMP280;56967;43.538;-5.646;2023-03-04T10:00:38;102191.69;;;18.85
69704;BMP280;56967;43.538;-5.646;2023-03-04T10:03:13;102191.38;;;19.33
69704;BMP280;56967;43.538;-5.646;2023-03-04T10:06:02;102197.41;;;19.57
69704;BMP280;56967;43.538;-5.646;2023-03-04T10:16:42;102205.50;;;20.78
69704;BMP280;56967;43.538;-5.646;2023-03-04T10:21:48;102212.72;;;21.47
69704;BMP280;56967;43.538;-5.646;2023-03-04T10:24:19;102214.16;;;21.55
69704;BMP280;56967;43.538;-5.646;2023-03-04T10:26:56;102212.75;;;21.79
69704;BMP280;56967;43.538;-5.646;2023-03-04T10:29:23;102210.22;;;21.99
69704;BMP280;56967;43.538;-5.646;2023-03-04T10:31:49;102213.38;;;22.23
69704;BMP280;56967;43.538;-5.646;2023-03-04T10:34:16;102228.66;;;20.89
69704;BMP280;56967;43.538;-5.646;2023-03-04T10:39:41;102215.75;;;19.81
69704;BMP280;56967;43.538;-5.646;2023-03-04T10:44:56;102204.97;;;19.76
69704;BMP280;56967;43.538;-5.646;2023-03-04T10:47:26;102198.53;;;20.22
69704;BMP280;56967;43.538;-5.646;2023-03-04T10:49:57;102198.44;;;20.00
69704;BMP280;56967;43.538;-5.646;2023-03-04T10:52:39;102198.44;;;18.64
69704;BMP280;56967;43.538;-5.646;2023-03-04T10:55:14;102200.00;;;19.12
69704;BMP280;56967;43.538;-5.646;2023-03-04T10:57:42;102192.03;;;18.77
69704;BMP280;56967;43.538;-5.646;2023-03-04T11:00:30;102192.38;;;17.93
69704;BMP280;56967;43.538;-5.646;2023-03-04T11:03:28;102179.72;;;18.07
69704;BMP280;56967;43.538;-5.646;2023-03-04T11:06:20;102186.31;;;18.04
69704;BMP280;56967;43.538;-5.646;2023-03-04T11:08:55;102177.09;;;18.30
69704;BMP280;56967;43.538;-5.646;2023-03-04T11:11:37;102177.25;;;19.21
69704;BMP280;56967;43.538;-5.646;2023-03-04T11:17:23;102161.94;;;18.19
69704;BMP280;56967;43.538;-5.646;2023-03-04T11:19:57;102162.72;;;18.31
69704;BMP280;56967;43.538;-5.646;2023-03-04T11:22:24;102161.81;;;17.84
69704;BMP280;56967;43.538;-5.646;2023-03-04T11:25:06;102161.81;;;17.72
69704;BMP280;56967;43.538;-5.646;2023-03-04T11:27:46;102152.50;;;17.15
69704;BMP280;56967;43.538;-5.646;2023-03-04T11:30:40;102145.66;;;16.47
69704;BMP280;56967;43.538;-5.646;2023-03-04T11:33:27;102144.50;;;17.04
69704;BMP280;56967;43.538;-5.646;2023-03-04T11:38:48;102139.91;;;16.93
69704;BMP280;56967;43.538;-5.646;2023-03-04T11:41:31;102143.81;;;16.72
69704;BMP280;56967;43.538;-5.646;2023-03-04T11:43:59;102126.38;;;16.76
69704;BMP280;56967;43.538;-5.646;2023-03-04T11:51:51;102121.66;;;16.11
69704;BMP280;56967;43.538;-5.646;2023-03-04T11:54:33;102115.22;;;16.49
69704;BMP280;56967;43.538;-5.646;2023-03-04T12:00:21;102120.84;;;16.59
69704;BMP280;56967;43.538;-5.646;2023-03-04T12:08:41;102111.06;;;16.78
69704;BMP280;56967;43.538;-5.646;2023-03-04T12:14:01;102109.44;;;16.77
69704;BMP280;56967;43.538;-5.646;2023-03-04T12:24:40;102088.34;;;16.82
69704;BMP280;56967;43.538;-5.646;2023-03-04T12:27:27;102095.84;;;16.67
69704;BMP280;56967;43.538;-5.646;2023-03-04T12:32:57;102086.31;;;16.96
69704;BMP280;56967;43.538;-5.646;2023-03-04T12:35:50;102085.22;;;16.49
69704;BMP280;56967;43.538;-5.646;2023-03-04T12:44:15;102060.63;;;16.35
69704;BMP280;56967;43.538;-5.646;2023-03-04T12:55:22;102029.41;;;16.55
69704;BMP280;56967;43.538;-5.646;2023-03-04T12:57:53;102031.47;;;16.11
69704;BMP280;56967;43.538;-5.646;2023-03-04T13:00:43;102026.00;;;16.06
69704;BMP280;56967;43.538;-5.646;2023-03-04T13:03:17;102025.72;;;16.14
69704;BMP280;56967;43.538;-5.646;2023-03-04T13:14:00;102000.31;;;15.75
69704;BMP280;56967;43.538;-5.646;2023-03-04T13:22:41;101981.16;;;15.48
69704;BMP280;56967;43.538;-5.646;2023-03-04T13:25:38;101983.91;;;15.35
69704;BMP280;56967;43.538;-5.646;2023-03-04T13:30:39;101969.06;;;14.26
69704;BMP280;56967;43.538;-5.646;2023-03-04T13:43:37;101928.59;;;14.05
69704;BMP280;56967;43.538;-5.646;2023-03-04T13:51:31;101903.22;;;13.65
69704;BMP280;56967;43.538;-5.646;2023-03-04T13:56:36;101904.63;;;13.74
69704;BMP280;56967;43.538;-5.646;2023-03-04T14:06:42;101880.22;;;13.85
69704;BMP280;56967;43.538;-5.646;2023-03-04T14:09:16;101894.03;;;13.74
69704;BMP280;56967;43.538;-5.646;2023-03-04T14:11:46;101906.25;;;13.88
69704;BMP280;56967;43.538;-5.646;2023-03-04T14:14:16;101872.88;;;13.87
69704;BMP280;56967;43.538;-5.646;2023-03-04T14:17:03;101866.00;;;13.60
69704;BMP280;56967;43.538;-5.646;2023-03-04T14:19:32;101876.38;;;13.75
69704;BMP280;56967;43.538;-5.646;2023-03-04T14:22:00;101861.94;;;13.64
69704;BMP280;56967;43.538;-5.646;2023-03-04T14:24:27;101843.03;;;13.80
69704;BMP280;56967;43.538;-5.646;2023-03-04T14:27:11;101843.84;;;13.74
69704;BMP280;56967;43.538;-5.646;2023-03-04T14:29:37;101835.94;;;13.68
69704;BMP280;56967;43.538;-5.646;2023-03-04T14:32:04;101816.63;;;13.67
69704;BMP280;56967;43.538;-5.646;2023-03-04T14:34:32;101819.06;;;13.75
69704;BMP280;56967;43.538;-5.646;2023-03-04T14:37:00;101854.41;;;13.55
69704;BMP280;56967;43.538;-5.646;2023-03-04T14:39:29;101824.72;;;13.66
69704;BMP280;56967;43.538;-5.646;2023-03-04T14:42:02;101813.94;;;13.74
69704;BMP280;56967;43.538;-5.646;2023-03-04T14:44:35;101825.53;;;13.73
69704;BMP280;56967;43.538;-5.646;2023-03-04T14:49:55;101828.63;;;13.76
69704;BMP280;56967;43.538;-5.646;2023-03-04T14:52:39;101817.84;;;13.71
69704;BMP280;56967;43.538;-5.646;2023-03-04T14:55:18;101797.09;;;13.68
69704;BMP280;56967;43.538;-5.646;2023-03-04T14:57:48;101800.75;;;13.74
69704;BMP280;56967;43.538;-5.646;2023-03-04T15:03:02;101783.66;;;13.83
69704;BMP280;56967;43.538;-5.646;2023-03-04T15:05:31;101790.78;;;13.69
69704;BMP280;56967;43.538;-5.646;2023-03-04T15:08:24;101798.13;;;13.61
69704;BMP280;56967;43.538;-5.646;2023-03-04T15:10:58;101799.38;;;13.58
69704;BMP280;56967;43.538;-5.646;2023-03-04T15:13:41;101793.47;;;13.63
69704;BMP280;56967;43.538;-5.646;2023-03-04T15:16:09;101794.06;;;13.71
69704;BMP280;56967;43.538;-5.646;2023-03-04T15:18:35;101792.84;;;13.61
69704;BMP280;56967;43.538;-5.646;2023-03-04T15:23:45;101775.97;;;13.55
69704;BMP280;56967;43.538;-5.646;2023-03-04T15:26:11;101760.91;;;13.75
69704;BMP280;56967;43.538;-5.646;2023-03-04T15:28:39;101780.00;;;13.84
69704;BMP280;56967;43.538;-5.646;2023-03-04T15:31:17;101775.31;;;13.79
69704;BMP280;56967;43.538;-5.646;2023-03-04T15:33:43;101777.97;;;13.79
69704;BMP280;56967;43.538;-5.646;2023-03-04T15:36:13;101781.63;;;13.78
69704;BMP280;56967;43.538;-5.646;2023-03-04T15:38:41;101782.28;;;13.54
69704;BMP280;56967;43.538;-5.646;2023-03-04T15:41:10;101768.06;;;13.62
69704;BMP280;56967;43.538;-5.646;2023-03-04T15:43:36;101758.09;;;13.70
69704;BMP280;56967;43.538;-5.646;2023-03-04T15:46:02;101776.38;;;13.72
69704;BMP280;56967;43.538;-5.646;2023-03-04T15:48:28;101768.03;;;13.81
69704;BMP280;56967;43.538;-5.646;2023-03-04T15:50:58;101779.41;;;13.69
69704;BMP280;56967;43.538;-5.646;2023-03-04T15:55:58;101771.53;;;13.49
69704;BMP280;56967;43.538;-5.646;2023-03-04T15:58:25;101769.88;;;13.61
69704;BMP280;56967;43.538;-5.646;2023-03-04T16:00:51;101773.94;;;13.64
69704;BMP280;56967;43.538;-5.646;2023-03-04T16:03:18;101755.84;;;13.67